sensor_id;sensor_type;location;lat;lon;timestamp;P1;durP1;ratioP1;P2;durP2;ratioP2
41837;SDS011;27511;52.042;5.178;2022-08-18T00:02:14;20.27;;;16.90;;
41837;SDS011;27511;52.042;5.178;2022-08-18T00:04:45;19.40;;;15.50;;
41837;SDS011;27511;52.042;5.178;2022-08-18T00:07:12;19.10;;;14.93;;
41837;SDS011;27511;52.042;5.178;2022-08-18T00:09:57;19.45;;;14.52;;
41837;SDS011;27511;52.042;5.178;2022-08-18T00:12:25;19.35;;;15.00;;
41837;SDS011;27511;52.042;5.178;2022-08-18T00:14:56;22.60;;;14.18;;
41837;SDS011;27511;52.042;5.178;2022-08-18T00:17:27;17.88;;;14.00;;
41837;SDS011;27511;52.042;5.178;2022-08-18T00:19:53;16.75;;;13.95;;
41837;SDS011;27511;52.042;5.178;2022-08-18T00:22:19;19.95;;;14.10;;
41837;SDS011;27511;52.042;5.178;2022-08-18T00:24:47;18.60;;;13.55;;
41837;SDS011;27511;52.042;5.178;2022-08-18T00:27:16;16.20;;;13.20;;
41837;SDS011;27511;52.042;5.178;2022-08-18T00:29:45;18.75;;;13.70;;
41837;SDS011;27511;52.042;5.178;2022-08-18T00:32:12;17.88;;;14.10;;
41837;SDS011;27511;52.042;5.178;2022-08-18T00:34:39;20.70;;;14.13;;
41837;SDS011;27511;52.042;5.178;2022-08-18T00:37:04;18.15;;;14.02;;
41837;SDS011;27511;52.042;5.178;2022-08-18T00:39:30;17.25;;;14.32;;
41837;SDS011;27511;52.042;5.178;2022-08-18T00:41:58;18.15;;;14.70;;
41837;SDS011;27511;52.042;5.178;2022-08-18T00:44:24;18.25;;;14.13;;
41837;SDS011;27511;52.042;5.178;2022-08-18T00:46:49;16.63;;;13.98;;
41837;SDS011;27511;52.042;5.178;2022-08-18T00:49:15;18.42;;;14.02;;
41837;SDS011;27511;52.042;5.178;2022-08-18T00:51:43;17.05;;;14.10;;
41837;SDS011;27511;52.042;5.178;2022-08-18T00:54:21;19.27;;;14.57;;
41837;SDS011;27511;52.042;5.178;2022-08-18T00:56:54;20.00;;;14.15;;
41837;SDS011;27511;52.042;5.178;2022-08-18T00:59:30;18.02;;;14.05;;
41837;SDS011;27511;52.042;5.178;2022-08-18T01:01:59;16.98;;;14.35;;
41837;SDS011;27511;52.042;5.178;2022-08-18T01:04:30;17.05;;;13.20;;
41837;SDS011;27511;52.042;5.178;2022-08-18T01:07:19;16.88;;;13.90;;
41837;SDS011;27511;52.042;5.178;2022-08-18T01:09:49;17.92;;;13.30;;
41837;SDS011;27511;52.042;5.178;2022-08-18T01:12:16;18.17;;;14.02;;
41837;SDS011;27511;52.042;5.178;2022-08-18T01:14:42;19.88;;;14.57;;
41837;SDS011;27511;52.042;5.178;2022-08-18T01:17:08;18.17;;;14.20;;
41837;SDS011;27511;52.042;5.178;2022-08-18T01:27:57;16.42;;;13.02;;
41837;SDS011;27511;52.042;5.178;2022-08-18T01:30:26;16.88;;;13.82;;
41837;SDS011;27511;52.042;5.178;2022-08-18T01:32:52;22.92;;;14.30;;
41837;SDS011;27511;52.042;5.178;2022-08-18T01:35:18;16.27;;;13.02;;
41837;SDS011;27511;52.042;5.178;2022-08-18T01:37:46;17.15;;;13.70;;
41837;SDS011;27511;52.042;5.178;2022-08-18T01:40:13;16.50;;;13.43;;
41837;SDS011;27511;52.042;5.178;2022-08-18T01:42:40;16.00;;;13.27;;
41837;SDS011;27511;52.042;5.178;2022-08-18T01:45:09;18.02;;;12.65;;
41837;SDS011;27511;52.042;5.178;2022-08-18T01:47:36;17.15;;;12.95;;
41837;SDS011;27511;52.042;5.178;2022-08-18T01:50:04;16.83;;;13.25;;
41837;SDS011;27511;52.042;5.178;2022-08-18T01:52:31;16.63;;;12.82;;
41837;SDS011;27511;52.042;5.178;2022-08-18T01:54:59;17.88;;;13.27;;
41837;SDS011;27511;52.042;5.178;2022-08-18T01:57:25;18.60;;;13.80;;
41837;SDS011;27511;52.042;5.178;2022-08-18T01:59:50;18.60;;;13.73;;
41837;SDS011;27511;52.042;5.178;2022-08-18T02:02:17;16.48;;;13.07;;
41837;SDS011;27511;52.042;5.178;2022-08-18T02:04:48;17.48;;;13.00;;
41837;SDS011;27511;52.042;5.178;2022-08-18T02:07:18;18.58;;;14.18;;
41837;SDS011;27511;52.042;5.178;2022-08-18T02:09:45;17.25;;;13.93;;
41837;SDS011;27511;52.042;5.178;2022-08-18T02:12:11;18.42;;;13.90;;
41837;SDS011;27511;52.042;5.178;2022-08-18T02:14:37;14.90;;;12.80;;
41837;SDS011;27511;52.042;5.178;2022-08-18T02:17:03;15.60;;;13.20;;
41837;SDS011;27511;52.042;5.178;2022-08-18T02:19:45;19.40;;;13.88;;
41837;SDS011;27511;52.042;5.178;2022-08-18T02:22:12;16.05;;;13.50;;
41837;SDS011;27511;52.042;5.178;2022-08-18T02:24:41;18.65;;;12.32;;
41837;SDS011;27511;52.042;5.178;2022-08-18T02:27:07;16.90;;;13.27;;
41837;SDS011;27511;52.042;5.178;2022-08-18T02:29:35;19.85;;;13.45;;
41837;SDS011;27511;52.042;5.178;2022-08-18T02:32:01;16.38;;;12.80;;
41837;SDS011;27511;52.042;5.178;2022-08-18T02:34:27;17.55;;;13.73;;
41837;SDS011;27511;52.042;5.178;2022-08-18T02:36:52;17.50;;;14.02;;
41837;SDS011;27511;52.042;5.178;2022-08-18T02:39:18;18.00;;;13.95;;
41837;SDS011;27511;52.042;5.178;2022-08-18T02:41:44;15.80;;;12.30;;
41837;SDS011;27511;52.042;5.178;2022-08-18T02:44:09;18.77;;;14.57;;
41837;SDS011;27511;52.042;5.178;2022-08-18T02:46:35;19.70;;;14.77;;
41837;SDS011;27511;52.042;5.178;2022-08-18T02:49:01;20.77;;;15.13;;
41837;SDS011;27511;52.042;5.178;2022-08-18T02:51:28;19.45;;;14.55;;
41837;SDS011;27511;52.042;5.178;2022-08-18T02:53:54;18.85;;;14.70;;
41837;SDS011;27511;52.042;5.178;2022-08-18T02:56:23;19.13;;;14.77;;
41837;SDS011;27511;52.042;5.178;2022-08-18T02:58:54;20.42;;;16.20;;
41837;SDS011;27511;52.042;5.178;2022-08-18T03:01:20;23.48;;;16.33;;
41837;SDS011;27511;52.042;5.178;2022-08-18T03:03:48;20.63;;;15.40;;
41837;SDS011;27511;52.042;5.178;2022-08-18T03:06:14;22.80;;;17.30;;
41837;SDS011;27511;52.042;5.178;2022-08-18T03:08:41;24.23;;;18.02;;
41837;SDS011;27511;52.042;5.178;2022-08-18T03:11:12;23.13;;;17.17;;
41837;SDS011;27511;52.042;5.178;2022-08-18T03:13:38;23.45;;;16.77;;
41837;SDS011;27511;52.042;5.178;2022-08-18T03:16:04;23.75;;;16.48;;
41837;SDS011;27511;52.042;5.178;2022-08-18T03:18:30;21.52;;;15.88;;
41837;SDS011;27511;52.042;5.178;2022-08-18T03:20:55;24.55;;;17.17;;
41837;SDS011;27511;52.042;5.178;2022-08-18T03:23:22;25.65;;;18.02;;
41837;SDS011;27511;52.042;5.178;2022-08-18T03:25:48;25.70;;;17.20;;
41837;SDS011;27511;52.042;5.178;2022-08-18T03:28:14;23.13;;;16.65;;
41837;SDS011;27511;52.042;5.178;2022-08-18T03:30:41;24.92;;;17.33;;
41837;SDS011;27511;52.042;5.178;2022-08-18T03:33:07;25.15;;;16.85;;
41837;SDS011;27511;52.042;5.178;2022-08-18T03:35:34;25.80;;;19.25;;
41837;SDS011;27511;52.042;5.178;2022-08-18T03:38:00;28.20;;;18.88;;
41837;SDS011;27511;52.042;5.178;2022-08-18T03:40:26;26.85;;;19.52;;
41837;SDS011;27511;52.042;5.178;2022-08-18T03:42:52;29.58;;;20.42;;
41837;SDS011;27511;52.042;5.178;2022-08-18T03:45:17;30.52;;;21.55;;
41837;SDS011;27511;52.042;5.178;2022-08-18T03:47:43;33.58;;;22.13;;
41837;SDS011;27511;52.042;5.178;2022-08-18T03:50:09;33.63;;;22.27;;
41837;SDS011;27511;52.042;5.178;2022-08-18T03:52:35;34.53;;;22.70;;
41837;SDS011;27511;52.042;5.178;2022-08-18T03:55:03;33.72;;;21.98;;
41837;SDS011;27511;52.042;5.178;2022-08-18T03:57:29;33.42;;;23.02;;
41837;SDS011;27511;52.042;5.178;2022-08-18T03:59:57;38.45;;;24.35;;
41837;SDS011;27511;52.042;5.178;2022-08-18T04:02:23;36.17;;;24.35;;
41837;SDS011;27511;52.042;5.178;2022-08-18T04:04:48;36.15;;;23.92;;
41837;SDS011;27511;52.042;5.178;2022-08-18T04:07:15;38.45;;;25.73;;
41837;SDS011;27511;52.042;5.178;2022-08-18T04:09:41;39.75;;;25.48;;
41837;SDS011;27511;52.042;5.178;2022-08-18T04:12:11;39.03;;;25.08;;
41837;SDS011;27511;52.042;5.178;2022-08-18T04:14:40;36.97;;;23.58;;
41837;SDS011;27511;52.042;5.178;2022-08-18T04:17:07;34.33;;;22.50;;
41837;SDS011;27511;52.042;5.178;2022-08-18T04:19:33;38.33;;;24.30;;
41837;SDS011;27511;52.042;5.178;2022-08-18T04:22:00;39.95;;;24.15;;
41837;SDS011;27511;52.042;5.178;2022-08-18T04:24:27;37.42;;;22.98;;
41837;SDS011;27511;52.042;5.178;2022-08-18T04:26:54;35.45;;;22.83;;
41837;SDS011;27511;52.042;5.178;2022-08-18T04:29:21;30.58;;;21.73;;
41837;SDS011;27511;52.042;5.178;2022-08-18T04:31:47;34.03;;;21.95;;
41837;SDS011;27511;52.042;5.178;2022-08-18T04:34:14;32.22;;;21.38;;
41837;SDS011;27511;52.042;5.178;2022-08-18T04:36:40;33.95;;;22.25;;
41837;SDS011;27511;52.042;5.178;2022-08-18T04:39:07;26.55;;;18.88;;
41837;SDS011;27511;52.042;5.178;2022-08-18T04:41:34;30.58;;;20.65;;
41837;SDS011;27511;52.042;5.178;2022-08-18T04:44:05;30.17;;;19.75;;
41837;SDS011;27511;52.042;5.178;2022-08-18T04:46:37;29.02;;;19.42;;
41837;SDS011;27511;52.042;5.178;2022-08-18T04:49:04;28.58;;;19.63;;
41837;SDS011;27511;52.042;5.178;2022-08-18T04:51:30;26.33;;;19.00;;
41837;SDS011;27511;52.042;5.178;2022-08-18T04:53:56;26.00;;;18.92;;
41837;SDS011;27511;52.042;5.178;2022-08-18T04:56:26;28.02;;;19.55;;
41837;SDS011;27511;52.042;5.178;2022-08-18T04:59:04;27.65;;;18.95;;
41837;SDS011;27511;52.042;5.178;2022-08-18T05:01:35;24.98;;;17.42;;
41837;SDS011;27511;52.042;5.178;2022-08-18T05:04:03;27.63;;;18.42;;
41837;SDS011;27511;52.042;5.178;2022-08-18T05:06:29;24.58;;;18.35;;
41837;SDS011;27511;52.042;5.178;2022-08-18T05:08:57;25.08;;;17.67;;
41837;SDS011;27511;52.042;5.178;2022-08-18T05:11:25;27.65;;;18.25;;
41837;SDS011;27511;52.042;5.178;2022-08-18T05:13:54;26.30;;;17.58;;
41837;SDS011;27511;52.042;5.178;2022-08-18T05:16:21;23.35;;;17.00;;
41837;SDS011;27511;52.042;5.178;2022-08-18T05:18:49;23.98;;;16.92;;
41837;SDS011;27511;52.042;5.178;2022-08-18T05:21:15;26.10;;;17.73;;
41837;SDS011;27511;52.042;5.178;2022-08-18T05:23:41;24.35;;;17.25;;
41837;SDS011;27511;52.042;5.178;2022-08-18T05:26:08;23.15;;;16.38;;
41837;SDS011;27511;52.042;5.178;2022-08-18T05:28:35;23.60;;;16.42;;
41837;SDS011;27511;52.042;5.178;2022-08-18T05:31:09;25.02;;;17.08;;
41837;SDS011;27511;52.042;5.178;2022-08-18T05:33:36;23.63;;;16.33;;
41837;SDS011;27511;52.042;5.178;2022-08-18T05:36:04;25.65;;;17.08;;
41837;SDS011;27511;52.042;5.178;2022-08-18T05:38:55;25.45;;;17.45;;
41837;SDS011;27511;52.042;5.178;2022-08-18T05:41:39;25.80;;;16.98;;
41837;SDS011;27511;52.042;5.178;2022-08-18T05:44:08;26.60;;;17.52;;
41837;SDS011;27511;52.042;5.178;2022-08-18T05:46:42;20.27;;;14.55;;
41837;SDS011;27511;52.042;5.178;2022-08-18T05:49:12;22.58;;;15.35;;
41837;SDS011;27511;52.042;5.178;2022-08-18T05:51:43;22.35;;;15.43;;
41837;SDS011;27511;52.042;5.178;2022-08-18T05:54:11;20.02;;;15.45;;
41837;SDS011;27511;52.042;5.178;2022-08-18T05:56:59;22.63;;;16.50;;
41837;SDS011;27511;52.042;5.178;2022-08-18T05:59:33;22.02;;;15.30;;
41837;SDS011;27511;52.042;5.178;2022-08-18T06:02:03;22.90;;;14.90;;
41837;SDS011;27511;52.042;5.178;2022-08-18T06:09:47;19.25;;;14.15;;
41837;SDS011;27511;52.042;5.178;2022-08-18T06:12:28;18.73;;;13.75;;
41837;SDS011;27511;52.042;5.178;2022-08-18T06:15:03;17.30;;;12.55;;
41837;SDS011;27511;52.042;5.178;2022-08-18T06:22:50;17.23;;;12.63;;
41837;SDS011;27511;52.042;5.178;2022-08-18T06:28:35;22.45;;;13.80;;
41837;SDS011;27511;52.042;5.178;2022-08-18T06:31:17;19.73;;;13.43;;
41837;SDS011;27511;52.042;5.178;2022-08-18T06:36:36;16.98;;;13.52;;
41837;SDS011;27511;52.042;5.178;2022-08-18T06:41:55;18.05;;;13.65;;
41837;SDS011;27511;52.042;5.178;2022-08-18T06:44:28;20.55;;;14.25;;
41837;SDS011;27511;52.042;5.178;2022-08-18T06:46:58;17.30;;;13.68;;
41837;SDS011;27511;52.042;5.178;2022-08-18T06:52:16;17.67;;;13.32;;
41837;SDS011;27511;52.042;5.178;2022-08-18T06:54:45;18.83;;;13.27;;
41837;SDS011;27511;52.042;5.178;2022-08-18T06:59:59;15.77;;;11.00;;
41837;SDS011;27511;52.042;5.178;2022-08-18T07:02:37;16.58;;;11.30;;
41837;SDS011;27511;52.042;5.178;2022-08-18T07:05:16;16.63;;;11.73;;
41837;SDS011;27511;52.042;5.178;2022-08-18T07:10:49;14.10;;;11.70;;
41837;SDS011;27511;52.042;5.178;2022-08-18T07:15:54;15.32;;;11.18;;
41837;SDS011;27511;52.042;5.178;2022-08-18T07:18:29;13.40;;;10.02;;
41837;SDS011;27511;52.042;5.178;2022-08-18T07:20:59;14.73;;;10.07;;
41837;SDS011;27511;52.042;5.178;2022-08-18T07:23:33;11.23;;;9.43;;
41837;SDS011;27511;52.042;5.178;2022-08-18T07:26:06;12.32;;;9.57;;
41837;SDS011;27511;52.042;5.178;2022-08-18T07:28:40;11.20;;;8.75;;
41837;SDS011;27511;52.042;5.178;2022-08-18T07:31:24;10.85;;;8.25;;
41837;SDS011;27511;52.042;5.178;2022-08-18T07:33:57;11.63;;;8.38;;
41837;SDS011;27511;52.042;5.178;2022-08-18T07:36:27;11.40;;;9.32;;
41837;SDS011;27511;52.042;5.178;2022-08-18T07:39:00;10.38;;;8.35;;
41837;SDS011;27511;52.042;5.178;2022-08-18T07:41:33;11.57;;;7.90;;
41837;SDS011;27511;52.042;5.178;2022-08-18T07:46:58;11.20;;;9.50;;
41837;SDS011;27511;52.042;5.178;2022-08-18T07:49:36;12.68;;;9.73;;
41837;SDS011;27511;52.042;5.178;2022-08-18T07:52:07;11.85;;;8.52;;
41837;SDS011;27511;52.042;5.178;2022-08-18T07:54:49;11.30;;;8.82;;
41837;SDS011;27511;52.042;5.178;2022-08-18T07:57:31;11.02;;;9.65;;
41837;SDS011;27511;52.042;5.178;2022-08-18T08:00:23;11.57;;;8.75;;
41837;SDS011;27511;52.042;5.178;2022-08-18T08:05:49;9.73;;;8.48;;
41837;SDS011;27511;52.042;5.178;2022-08-18T08:08:30;10.15;;;8.95;;
41837;SDS011;27511;52.042;5.178;2022-08-18T08:11:23;9.57;;;8.15;;
41837;SDS011;27511;52.042;5.178;2022-08-18T08:14:00;8.85;;;7.93;;
41837;SDS011;27511;52.042;5.178;2022-08-18T08:20:08;8.07;;;7.18;;
41837;SDS011;27511;52.042;5.178;2022-08-18T08:25:22;7.97;;;6.85;;
41837;SDS011;27511;52.042;5.178;2022-08-18T08:27:57;8.43;;;6.18;;
41837;SDS011;27511;52.042;5.178;2022-08-18T08:30:45;8.65;;;6.32;;
41837;SDS011;27511;52.042;5.178;2022-08-18T08:33:34;7.95;;;6.07;;
41837;SDS011;27511;52.042;5.178;2022-08-18T08:36:10;7.43;;;6.63;;
41837;SDS011;27511;52.042;5.178;2022-08-18T08:38:47;7.82;;;6.80;;
41837;SDS011;27511;52.042;5.178;2022-08-18T08:41:35;7.45;;;6.72;;
41837;SDS011;27511;52.042;5.178;2022-08-18T08:44:13;8.18;;;7.38;;
41837;SDS011;27511;52.042;5.178;2022-08-18T08:46:52;8.07;;;7.05;;
41837;SDS011;27511;52.042;5.178;2022-08-18T08:49:24;7.22;;;6.53;;
41837;SDS011;27511;52.042;5.178;2022-08-18T08:52:17;8.93;;;8.13;;
41837;SDS011;27511;52.042;5.178;2022-08-18T08:54:50;7.53;;;6.82;;
41837;SDS011;27511;52.042;5.178;2022-08-18T08:57:26;7.88;;;7.15;;
41837;SDS011;27511;52.042;5.178;2022-08-18T08:59:57;8.32;;;7.43;;
41837;SDS011;27511;52.042;5.178;2022-08-18T09:02:40;8.13;;;7.32;;
41837;SDS011;27511;52.042;5.178;2022-08-18T09:05:19;7.95;;;7.15;;
41837;SDS011;27511;52.042;5.178;2022-08-18T09:24:21;7.57;;;6.70;;
41837;SDS011;27511;52.042;5.178;2022-08-18T09:29:49;6.63;;;6.03;;
41837;SDS011;27511;52.042;5.178;2022-08-18T09:37:56;6.50;;;6.00;;
41837;SDS011;27511;52.042;5.178;2022-08-18T09:40:50;6.30;;;5.70;;
41837;SDS011;27511;52.042;5.178;2022-08-18T09:43:53;6.53;;;5.53;;
41837;SDS011;27511;52.042;5.178;2022-08-18T09:57:18;5.82;;;5.28;;
41837;SDS011;27511;52.042;5.178;2022-08-18T10:07:44;5.10;;;4.50;;
41837;SDS011;27511;52.042;5.178;2022-08-18T10:13:18;6.13;;;5.50;;
41837;SDS011;27511;52.042;5.178;2022-08-18T10:15:49;6.80;;;6.03;;
41837;SDS011;27511;52.042;5.178;2022-08-18T10:18:37;8.38;;;5.82;;
41837;SDS011;27511;52.042;5.178;2022-08-18T10:21:14;8.00;;;5.72;;
41837;SDS011;27511;52.042;5.178;2022-08-18T10:23:56;6.97;;;6.05;;
41837;SDS011;27511;52.042;5.178;2022-08-18T10:31:24;6.55;;;5.93;;
41837;SDS011;27511;52.042;5.178;2022-08-18T10:33:59;6.20;;;5.32;;
41837;SDS011;27511;52.042;5.178;2022-08-18T10:36:50;6.07;;;4.95;;
41837;SDS011;27511;52.042;5.178;2022-08-18T10:39:26;5.65;;;5.15;;
41837;SDS011;27511;52.042;5.178;2022-08-18T10:42:12;5.20;;;4.70;;
41837;SDS011;27511;52.042;5.178;2022-08-18T10:44:47;6.45;;;5.00;;
41837;SDS011;27511;52.042;5.178;2022-08-18T10:47:24;5.88;;;4.70;;
41837;SDS011;27511;52.042;5.178;2022-08-18T10:49:53;5.35;;;4.85;;
41837;SDS011;27511;52.042;5.178;2022-08-18T10:55:32;5.30;;;4.68;;
41837;SDS011;27511;52.042;5.178;2022-08-18T10:58:17;5.60;;;5.00;;
41837;SDS011;27511;52.042;5.178;2022-08-18T11:03:42;4.93;;;4.40;;
41837;SDS011;27511;52.042;5.178;2022-08-18T11:06:15;5.22;;;4.72;;
41837;SDS011;27511;52.042;5.178;2022-08-18T11:08:45;4.95;;;4.55;;
41837;SDS011;27511;52.042;5.178;2022-08-18T11:11:12;4.70;;;4.20;;
41837;SDS011;27511;52.042;5.178;2022-08-18T11:14:03;5.20;;;4.70;;
41837;SDS011;27511;52.042;5.178;2022-08-18T11:17:32;5.43;;;4.03;;
41837;SDS011;27511;52.042;5.178;2022-08-18T11:19:42;6.05;;;3.97;;
41837;SDS011;27511;52.042;5.178;2022-08-18T11:24:52;6.03;;;4.28;;
41837;SDS011;27511;52.042;5.178;2022-08-18T11:27:19;4.53;;;4.13;;
41837;SDS011;27511;52.042;5.178;2022-08-18T11:29:59;4.15;;;3.75;;
41837;SDS011;27511;52.042;5.178;2022-08-18T11:58:54;4.75;;;4.18;;
41837;SDS011;27511;52.042;5.178;2022-08-18T12:06:35;3.78;;;3.35;;
41837;SDS011;27511;52.042;5.178;2022-08-18T12:09:17;5.25;;;4.75;;
41837;SDS011;27511;52.042;5.178;2022-08-18T12:12:06;3.53;;;3.10;;
41837;SDS011;27511;52.042;5.178;2022-08-18T12:14:56;4.10;;;3.70;;
41837;SDS011;27511;52.042;5.178;2022-08-18T12:17:27;4.07;;;3.63;;
41837;SDS011;27511;52.042;5.178;2022-08-18T12:19:55;3.60;;;3.30;;
41837;SDS011;27511;52.042;5.178;2022-08-18T12:22:24;3.88;;;3.33;;
41837;SDS011;27511;52.042;5.178;2022-08-18T12:24:52;4.22;;;3.58;;
41837;SDS011;27511;52.042;5.178;2022-08-18T12:27:20;3.75;;;3.42;;
41837;SDS011;27511;52.042;5.178;2022-08-18T12:29:47;3.67;;;3.35;;
41837;SDS011;27511;52.042;5.178;2022-08-18T12:32:23;3.83;;;3.53;;
41837;SDS011;27511;52.042;5.178;2022-08-18T12:34:50;3.53;;;3.22;;
41837;SDS011;27511;52.042;5.178;2022-08-18T12:37:17;4.80;;;3.35;;
41837;SDS011;27511;52.042;5.178;2022-08-18T12:39:44;3.45;;;3.15;;
41837;SDS011;27511;52.042;5.178;2022-08-18T12:42:09;2.85;;;2.65;;
41837;SDS011;27511;52.042;5.178;2022-08-18T12:44:35;3.65;;;2.60;;
41837;SDS011;27511;52.042;5.178;2022-08-18T12:47:02;2.70;;;2.45;;
41837;SDS011;27511;52.042;5.178;2022-08-18T12:49:34;2.90;;;2.70;;
41837;SDS011;27511;52.042;5.178;2022-08-18T12:52:00;3.50;;;3.00;;
41837;SDS011;27511;52.042;5.178;2022-08-18T12:54:25;3.80;;;2.70;;
41837;SDS011;27511;52.042;5.178;2022-08-18T12:56:52;6.15;;;2.90;;
41837;SDS011;27511;52.042;5.178;2022-08-18T12:59:19;4.20;;;2.85;;
41837;SDS011;27511;52.042;5.178;2022-08-18T13:01:45;3.75;;;3.33;;
41837;SDS011;27511;52.042;5.178;2022-08-18T13:04:10;3.10;;;2.85;;
41837;SDS011;27511;52.042;5.178;2022-08-18T13:06:38;3.28;;;2.97;;
41837;SDS011;27511;52.042;5.178;2022-08-18T13:09:08;2.70;;;2.50;;
41837;SDS011;27511;52.042;5.178;2022-08-18T13:11:34;3.17;;;2.88;;
41837;SDS011;27511;52.042;5.178;2022-08-18T13:13:59;3.10;;;2.90;;
41837;SDS011;27511;52.042;5.178;2022-08-18T13:16:25;3.60;;;3.17;;
41837;SDS011;27511;52.042;5.178;2022-08-18T13:18:52;3.15;;;2.75;;
41837;SDS011;27511;52.042;5.178;2022-08-18T13:21:18;3.00;;;2.70;;
41837;SDS011;27511;52.042;5.178;2022-08-18T13:23:43;3.13;;;2.92;;
41837;SDS011;27511;52.042;5.178;2022-08-18T13:26:12;2.95;;;2.65;;
41837;SDS011;27511;52.042;5.178;2022-08-18T13:28:44;3.20;;;2.72;;
41837;SDS011;27511;52.042;5.178;2022-08-18T13:31:10;2.38;;;2.17;;
41837;SDS011;27511;52.042;5.178;2022-08-18T13:33:35;2.97;;;2.78;;
41837;SDS011;27511;52.042;5.178;2022-08-18T13:36:01;2.90;;;2.65;;
41837;SDS011;27511;52.042;5.178;2022-08-18T13:38:27;4.10;;;2.88;;
41837;SDS011;27511;52.042;5.178;2022-08-18T13:40:53;2.83;;;2.50;;
41837;SDS011;27511;52.042;5.178;2022-08-18T13:43:29;3.22;;;2.72;;
41837;SDS011;27511;52.042;5.178;2022-08-18T13:45:56;3.15;;;2.53;;
41837;SDS011;27511;52.042;5.178;2022-08-18T13:48:22;2.33;;;2.13;;
41837;SDS011;27511;52.042;5.178;2022-08-18T13:50:49;3.42;;;2.55;;
41837;SDS011;27511;52.042;5.178;2022-08-18T13:53:17;2.60;;;2.40;;
41837;SDS011;27511;52.042;5.178;2022-08-18T13:55:43;2.85;;;2.65;;
41837;SDS011;27511;52.042;5.178;2022-08-18T13:58:09;2.67;;;2.45;;
41837;SDS011;27511;52.042;5.178;2022-08-18T14:00:36;2.35;;;2.15;;
41837;SDS011;27511;52.042;5.178;2022-08-18T14:03:03;2.80;;;2.60;;
41837;SDS011;27511;52.042;5.178;2022-08-18T14:05:28;2.72;;;2.47;;
41837;SDS011;27511;52.042;5.178;2022-08-18T14:07:55;2.80;;;2.60;;
41837;SDS011;27511;52.042;5.178;2022-08-18T14:10:21;5.25;;;2.47;;
41837;SDS011;27511;52.042;5.178;2022-08-18T14:12:48;2.58;;;2.38;;
41837;SDS011;27511;52.042;5.178;2022-08-18T14:15:18;2.65;;;2.45;;
41837;SDS011;27511;52.042;5.178;2022-08-18T14:17:43;2.90;;;2.70;;
41837;SDS011;27511;52.042;5.178;2022-08-18T14:20:09;2.60;;;2.40;;
41837;SDS011;27511;52.042;5.178;2022-08-18T14:22:55;2.80;;;2.50;;
41837;SDS011;27511;52.042;5.178;2022-08-18T14:25:41;2.88;;;2.40;;
41837;SDS011;27511;52.042;5.178;2022-08-18T14:28:26;2.58;;;2.38;;
41837;SDS011;27511;52.042;5.178;2022-08-18T14:31:03;3.03;;;2.40;;
41837;SDS011;27511;52.042;5.178;2022-08-18T14:33:29;9.35;;;3.80;;
41837;SDS011;27511;52.042;5.178;2022-08-18T14:35:56;3.15;;;2.65;;
41837;SDS011;27511;52.042;5.178;2022-08-18T14:38:21;2.92;;;2.67;;
41837;SDS011;27511;52.042;5.178;2022-08-18T14:40:48;2.92;;;2.67;;
41837;SDS011;27511;52.042;5.178;2022-08-18T14:43:15;2.75;;;2.40;;
41837;SDS011;27511;52.042;5.178;2022-08-18T14:45:43;2.67;;;2.28;;
41837;SDS011;27511;52.042;5.178;2022-08-18T14:48:13;3.10;;;2.65;;
41837;SDS011;27511;52.042;5.178;2022-08-18T14:50:41;3.58;;;2.28;;
41837;SDS011;27511;52.042;5.178;2022-08-18T14:53:09;3.17;;;2.88;;
41837;SDS011;27511;52.042;5.178;2022-08-18T14:55:37;2.83;;;2.63;;
41837;SDS011;27511;52.042;5.178;2022-08-18T14:58:03;3.22;;;2.63;;
41837;SDS011;27511;52.042;5.178;2022-08-18T15:00:29;3.42;;;2.30;;
41837;SDS011;27511;52.042;5.178;2022-08-18T15:02:55;2.92;;;2.30;;
41837;SDS011;27511;52.042;5.178;2022-08-18T15:05:23;3.85;;;2.67;;
41837;SDS011;27511;52.042;5.178;2022-08-18T15:07:49;4.15;;;2.65;;
41837;SDS011;27511;52.042;5.178;2022-08-18T15:10:15;2.17;;;1.98;;
41837;SDS011;27511;52.042;5.178;2022-08-18T15:12:41;2.67;;;2.30;;
41837;SDS011;27511;52.042;5.178;2022-08-18T15:15:09;2.95;;;2.40;;
41837;SDS011;27511;52.042;5.178;2022-08-18T15:17:37;2.72;;;2.28;;
41837;SDS011;27511;52.042;5.178;2022-08-18T15:20:04;2.30;;;2.10;;
41837;SDS011;27511;52.042;5.178;2022-08-18T15:22:31;2.72;;;2.03;;
41837;SDS011;27511;52.042;5.178;2022-08-18T15:25:21;3.25;;;2.40;;
41837;SDS011;27511;52.042;5.178;2022-08-18T15:27:59;2.50;;;2.30;;
41837;SDS011;27511;52.042;5.178;2022-08-18T15:30:25;2.35;;;2.15;;
41837;SDS011;27511;52.042;5.178;2022-08-18T15:32:51;2.50;;;2.30;;
41837;SDS011;27511;52.042;5.178;2022-08-18T15:35:17;6.25;;;2.67;;
41837;SDS011;27511;52.042;5.178;2022-08-18T15:37:43;3.83;;;2.40;;
41837;SDS011;27511;52.042;5.178;2022-08-18T15:40:15;2.50;;;2.30;;
41837;SDS011;27511;52.042;5.178;2022-08-18T15:42:46;3.67;;;2.17;;
41837;SDS011;27511;52.042;5.178;2022-08-18T15:45:17;2.45;;;2.25;;
41837;SDS011;27511;52.042;5.178;2022-08-18T15:47:49;2.42;;;2.03;;
41837;SDS011;27511;52.042;5.178;2022-08-18T15:50:15;2.72;;;2.20;;
41837;SDS011;27511;52.042;5.178;2022-08-18T15:52:44;2.60;;;2.22;;
41837;SDS011;27511;52.042;5.178;2022-08-18T15:55:15;4.53;;;2.47;;
41837;SDS011;27511;52.042;5.178;2022-08-18T15:57:42;2.85;;;1.98;;
41837;SDS011;27511;52.042;5.178;2022-08-18T16:00:08;1.77;;;1.67;;
41837;SDS011;27511;52.042;5.178;2022-08-18T16:02:35;2.95;;;2.10;;
41837;SDS011;27511;52.042;5.178;2022-08-18T16:05:03;3.42;;;2.38;;
41837;SDS011;27511;52.042;5.178;2022-08-18T16:07:32;2.70;;;2.40;;
41837;SDS011;27511;52.042;5.178;2022-08-18T16:09:57;2.35;;;2.15;;
41837;SDS011;27511;52.042;5.178;2022-08-18T16:12:23;2.72;;;2.45;;
41837;SDS011;27511;52.042;5.178;2022-08-18T16:14:48;2.50;;;2.30;;
41837;SDS011;27511;52.042;5.178;2022-08-18T16:17:16;3.08;;;2.25;;
41837;SDS011;27511;52.042;5.178;2022-08-18T16:19:43;3.10;;;2.00;;
41837;SDS011;27511;52.042;5.178;2022-08-18T16:22:08;5.05;;;2.10;;
41837;SDS011;27511;52.042;5.178;2022-08-18T16:24:34;2.55;;;2.13;;
41837;SDS011;27511;52.042;5.178;2022-08-18T16:26:59;3.15;;;2.05;;
41837;SDS011;27511;52.042;5.178;2022-08-18T16:29:25;2.42;;;2.22;;
41837;SDS011;27511;52.042;5.178;2022-08-18T16:31:51;2.53;;;2.30;;
41837;SDS011;27511;52.042;5.178;2022-08-18T16:34:16;4.43;;;2.50;;
41837;SDS011;27511;52.042;5.178;2022-08-18T16:36:42;2.72;;;2.10;;
41837;SDS011;27511;52.042;5.178;2022-08-18T16:39:07;2.55;;;2.10;;
41837;SDS011;27511;52.042;5.178;2022-08-18T16:41:36;2.42;;;2.22;;
41837;SDS011;27511;52.042;5.178;2022-08-18T16:44:01;2.67;;;2.00;;
41837;SDS011;27511;52.042;5.178;2022-08-18T16:46:27;3.80;;;2.13;;
41837;SDS011;27511;52.042;5.178;2022-08-18T16:48:53;2.70;;;2.15;;
41837;SDS011;27511;52.042;5.178;2022-08-18T16:51:21;1.50;;;1.40;;
41837;SDS011;27511;52.042;5.178;2022-08-18T16:53:49;2.17;;;1.98;;
41837;SDS011;27511;52.042;5.178;2022-08-18T16:56:18;2.28;;;2.08;;
41837;SDS011;27511;52.042;5.178;2022-08-18T16:58:45;2.05;;;1.85;;
41837;SDS011;27511;52.042;5.178;2022-08-18T17:01:29;2.40;;;1.90;;
41837;SDS011;27511;52.042;5.178;2022-08-18T17:04:15;1.90;;;1.67;;
41837;SDS011;27511;52.042;5.178;2022-08-18T17:06:44;2.22;;;2.03;;
41837;SDS011;27511;52.042;5.178;2022-08-18T17:09:09;2.35;;;2.13;;
41837;SDS011;27511;52.042;5.178;2022-08-18T17:11:37;2.05;;;1.60;;
41837;SDS011;27511;52.042;5.178;2022-08-18T17:14:03;2.00;;;1.88;;
41837;SDS011;27511;52.042;5.178;2022-08-18T17:16:31;2.15;;;1.95;;
41837;SDS011;27511;52.042;5.178;2022-08-18T17:19:19;2.88;;;2.10;;